Glocester, Rhode Island
Current Conditions -  °F | °C
As of 5:35 AM on Sunday 26 Oct 2014 (Local Time) from KSFZ Reporting Station
Broken Clouds Broken Clouds  
Wind Chill: 11°   Ceiling: 4400
Heat Index: 11°   Visibility: 10mi
Dew Point:   Wind: 8mph
Humidity: 58%   Direction: 260°W
Pressure: 29.48"   Gusts: NA
Location:  41.8875°N, 71.5975°W
Report Text: KSFZ 260935Z 26007KT 10SM BKN044 BKN090 11/03 A2948 RMK AO1
Loading
Personal Weather Stations






























Interactive Weather Map
Tropical Storm Tracking
New forecast layout! Learn more

10-Day Weather Forecast

Advertisements
Track Severe Weather on mobile